Main page
METAR-TAF:

METAR-TAF

Airports :

Dundee, Scotland

Dundee Airport

latitude: 56-27N, longitude: 003-01W, elevation: 4 m

Current weather observation

The report was made 10 hours and 25 minutes ago, at 15:50 UTC
Wind 6 kt from the West
Temperature 1°C
Humidity 86%
Pressure 1018 hPa
Visibility 10 km or more
no clouds below 1500 m and no cumulonimbus

METAR: EGPN 161550Z 27006KT CAVOK 01/M01 Q1018

Time: 02:15 (02:15 UTC)

Forecast

The report was made 11 hours and 50 minutes ago, at 14:25 UTC
Forecast valid from 16 at 15 UTC to 16 at 17 UTC
Wind 9 kt from the West
Visibility 10 km or more
Few clouds at a height of 3500 ft

TAF: EGPN 161425Z 1615/1617 27009KT 9999 FEW035

Weather observations and forecasts of more than 4000 airports (METAR and TAF reports).

The available stations are represented by yellow and red dots on the map.

Hover mouse over dot to see the name of the station.

Then click to see weather observations and forecasts.

To change the map : click on the green buttons with a black cross to zoom in, on the green button with a dash to zoom out, or on the green arrows for adjacent maps.


METAR-TAF: